createdAt,value
2023-03-31T00:02:15.198Z,99617.73
2023-03-31T00:04:45.662Z,99611.98
2023-03-31T00:07:14.323Z,99608.70
2023-03-31T00:09:45.583Z,99600.25
2023-03-31T00:12:13.503Z,99596.34
2023-03-31T00:14:40.761Z,99590.04
2023-03-31T00:17:08.927Z,99589.89
2023-03-31T00:19:36.744Z,99592.27
2023-03-31T00:22:04.849Z,99593.83
2023-03-31T00:24:32.600Z,99591.77
2023-03-31T00:27:01.417Z,99593.07
2023-03-31T00:29:28.817Z,99589.90
2023-03-31T00:31:56.136Z,99590.63
2023-03-31T00:34:22.982Z,99591.33
2023-03-31T00:36:49.778Z,99584.52
2023-03-31T00:39:18.899Z,99581.67
2023-03-31T00:41:45.767Z,99577.23
2023-03-31T00:44:22.238Z,99570.52
2023-03-31T00:46:56.406Z,99568.54
2023-03-31T00:49:23.122Z,99570.24
2023-03-31T00:51:52.037Z,99568.88
2023-03-31T00:54:22.841Z,99565.45
2023-03-31T00:56:52.650Z,99561.48
2023-03-31T00:59:20.310Z,99562.02
2023-03-31T01:01:50.027Z,99563.04
2023-03-31T01:04:22.015Z,99558.00
2023-03-31T01:07:00.332Z,99553.63
2023-03-31T01:09:34.389Z,99543.45
2023-03-31T01:12:05.784Z,99537.47
2023-03-31T01:14:32.736Z,99532.36
2023-03-31T01:16:59.682Z,99526.17
2023-03-31T01:19:51.468Z,99524.87
2023-03-31T01:22:24.405Z,99523.98
2023-03-31T01:25:32.265Z,99521.87
2023-03-31T01:28:07.150Z,99509.48
2023-03-31T01:30:43.904Z,99501.31
2023-03-31T01:33:54.325Z,99504.60
2023-03-31T01:36:43.114Z,99503.94
2023-03-31T01:39:23.479Z,99501.02
2023-03-31T01:42:01.515Z,99501.11
2023-03-31T01:44:59.975Z,99492.91
2023-03-31T01:47:39.805Z,99485.52
2023-03-31T01:50:15.766Z,99482.39
2023-03-31T01:53:10.562Z,99482.04
2023-03-31T01:55:39.472Z,99473.23
2023-03-31T01:58:14.227Z,99468.85
2023-03-31T02:00:51.434Z,99466.29
2023-03-31T02:03:24.182Z,99465.52
2023-03-31T02:05:56.679Z,99461.77
2023-03-31T02:08:34.509Z,99456.41
2023-03-31T02:11:02.521Z,99459.20
2023-03-31T02:13:33.816Z,99456.55
2023-03-31T02:16:06.696Z,99455.40
2023-03-31T02:18:38.044Z,99454.86
2023-03-31T02:21:08.161Z,99452.83
2023-03-31T02:23:38.088Z,99447.70
2023-03-31T02:26:11.772Z,99442.27
2023-03-31T02:28:40.283Z,99442.66
2023-03-31T02:31:28.842Z,99443.73
2023-03-31T02:33:57.246Z,99439.08
2023-03-31T02:36:25.003Z,99437.14
2023-03-31T02:38:57.910Z,99432.12
2023-03-31T02:41:27.821Z,99432.80
2023-03-31T02:43:56.214Z,99430.23
2023-03-31T02:46:25.014Z,99432.36
2023-03-31T02:48:59.223Z,99422.55
2023-03-31T02:51:29.098Z,99417.98
2023-03-31T02:54:50.748Z,99410.41
2023-03-31T02:57:26.820Z,99400.91
2023-03-31T03:00:18.716Z,99404.86
2023-03-31T03:03:29.047Z,99409.00
2023-03-31T03:06:20.224Z,99411.55
2023-03-31T03:09:04.314Z,99406.70
2023-03-31T03:11:43.542Z,99397.36
2023-03-31T03:14:26.605Z,99396.68
2023-03-31T03:17:05.440Z,99392.38
2023-03-31T03:19:32.489Z,99388.08
2023-03-31T03:21:59.331Z,99386.03
2023-03-31T03:24:29.063Z,99386.55
2023-03-31T03:26:56.085Z,99391.10
2023-03-31T03:29:23.065Z,99381.77
2023-03-31T03:31:50.043Z,99376.88
2023-03-31T03:34:18.300Z,99373.97
2023-03-31T03:36:46.267Z,99368.55
2023-03-31T03:39:13.077Z,99360.23
2023-03-31T03:41:39.990Z,99363.64
2023-03-31T03:44:06.800Z,99369.21
2023-03-31T03:46:33.715Z,99365.77
2023-03-31T03:49:00.540Z,99359.23
2023-03-31T03:51:27.251Z,99354.39
2023-03-31T03:53:54.075Z,99349.02
2023-03-31T03:56:21.634Z,99346.23
2023-03-31T03:58:48.434Z,99343.31
2023-03-31T04:01:15.779Z,99346.58
2023-03-31T04:03:42.605Z,99341.55
2023-03-31T04:06:09.596Z,99337.64
2023-03-31T04:08:36.533Z,99337.98
2023-03-31T04:11:03.458Z,99337.63
2023-03-31T04:13:30.208Z,99338.23
2023-03-31T04:15:57.025Z,99336.46
2023-03-31T04:18:23.906Z,99332.71
2023-03-31T04:21:03.543Z,99328.13
2023-03-31T04:23:38.032Z,99325.16
2023-03-31T04:26:08.605Z,99319.77
2023-03-31T04:28:36.650Z,99316.41
2023-03-31T04:31:08.897Z,99316.43
2023-03-31T04:33:39.336Z,99318.91
2023-03-31T04:36:17.240Z,99314.67
2023-03-31T04:38:46.405Z,99312.48
2023-03-31T04:41:14.129Z,99309.59
2023-03-31T04:43:40.959Z,99305.66
2023-03-31T04:46:08.107Z,99299.64
2023-03-31T04:48:35.804Z,99302.05
2023-03-31T04:51:03.229Z,99301.17
2023-03-31T04:53:30.212Z,99301.19
2023-03-31T04:55:57.620Z,99297.30
2023-03-31T04:58:24.685Z,99299.06
2023-03-31T05:00:52.544Z,99297.30
2023-03-31T05:03:20.075Z,99298.19
2023-03-31T05:05:46.901Z,99296.58
2023-03-31T05:08:13.626Z,99293.29
2023-03-31T05:10:40.399Z,99297.16
2023-03-31T05:13:10.600Z,99293.71
2023-03-31T05:15:39.077Z,99297.00
2023-03-31T05:18:07.472Z,99296.55
2023-03-31T05:20:34.537Z,99292.57
2023-03-31T05:23:01.467Z,99290.20
2023-03-31T05:25:32.399Z,99282.39
2023-03-31T05:28:00.308Z,99279.99
2023-03-31T05:30:27.617Z,99277.50
2023-03-31T05:32:55.384Z,99269.19
2023-03-31T05:35:22.962Z,99263.61
2023-03-31T05:37:49.909Z,99266.45
2023-03-31T05:40:16.945Z,99265.14
2023-03-31T05:42:44.048Z,99263.80
2023-03-31T05:45:12.195Z,99263.52
2023-03-31T05:47:39.244Z,99265.75
2023-03-31T05:50:08.463Z,99257.77
2023-03-31T05:52:35.888Z,99265.29
2023-03-31T05:55:03.950Z,99259.11
2023-03-31T05:57:31.398Z,99254.73
2023-03-31T05:59:58.441Z,99253.64
2023-03-31T06:02:25.434Z,99245.98
2023-03-31T06:04:52.388Z,99238.23
2023-03-31T06:07:19.298Z,99245.86
2023-03-31T06:09:46.445Z,99241.13
2023-03-31T06:12:13.519Z,99236.64
2023-03-31T06:14:40.287Z,99234.09
2023-03-31T06:17:07.382Z,99232.81
2023-03-31T06:19:34.643Z,99233.05
2023-03-31T06:22:01.775Z,99234.04
2023-03-31T06:24:28.609Z,99235.52
2023-03-31T06:26:55.401Z,99236.29
2023-03-31T06:29:22.219Z,99243.55
2023-03-31T06:31:49.247Z,99242.02
2023-03-31T06:34:17.833Z,99237.98
2023-03-31T06:36:45.601Z,99239.04
2023-03-31T06:39:12.445Z,99239.11
2023-03-31T06:41:39.386Z,99235.65
2023-03-31T06:44:06.623Z,99233.12
2023-03-31T06:46:33.500Z,99232.56
2023-03-31T06:49:00.376Z,99235.37
2023-03-31T06:51:27.302Z,99234.91
2023-03-31T06:53:54.106Z,99233.75
2023-03-31T06:56:21.467Z,99231.61
2023-03-31T06:58:48.414Z,99230.72
2023-03-31T07:01:15.405Z,99237.03
2023-03-31T07:03:42.241Z,99239.22
2023-03-31T07:06:09.224Z,99239.71
2023-03-31T07:08:36.181Z,99231.17
2023-03-31T07:11:04.141Z,99228.38
2023-03-31T07:13:31.433Z,99231.66
2023-03-31T07:15:58.337Z,99232.25
2023-03-31T07:18:34.360Z,99232.84
2023-03-31T07:21:03.636Z,99222.91
2023-03-31T07:23:31.996Z,99218.61
2023-03-31T07:26:02.094Z,99218.87
2023-03-31T07:28:29.994Z,99218.03
2023-03-31T07:30:56.997Z,99216.68
2023-03-31T07:33:24.095Z,99214.48
2023-03-31T07:36:00.204Z,99211.56
2023-03-31T07:38:35.635Z,99213.77
2023-03-31T07:41:08.967Z,99209.27
2023-03-31T07:43:37.082Z,99212.23
2023-03-31T07:46:05.141Z,99212.06
2023-03-31T07:48:33.361Z,99211.54
2023-03-31T07:51:00.316Z,99211.94
2023-03-31T07:53:33.219Z,99207.67
2023-03-31T07:56:00.016Z,99202.80
2023-03-31T07:58:26.861Z,99208.29
2023-03-31T08:00:53.664Z,99206.05
2023-03-31T08:03:20.509Z,99208.27
2023-03-31T08:05:47.955Z,99208.97
2023-03-31T08:08:15.776Z,99207.27
2023-03-31T08:10:42.649Z,99214.39
2023-03-31T08:13:09.435Z,99209.62
2023-03-31T08:15:36.232Z,99211.06
2023-03-31T08:18:04.650Z,99210.71
2023-03-31T08:20:32.468Z,99211.56
2023-03-31T08:22:59.759Z,99202.96
2023-03-31T08:25:26.555Z,99200.65
2023-03-31T08:27:53.439Z,99201.75
2023-03-31T08:30:20.456Z,99201.12
2023-03-31T08:32:47.348Z,99199.14
2023-03-31T08:35:14.703Z,99197.09
2023-03-31T08:37:41.951Z,99196.14
2023-03-31T08:40:16.395Z,99197.83
2023-03-31T08:42:47.041Z,99194.83
2023-03-31T08:45:20.132Z,99189.85
2023-03-31T08:47:51.459Z,99182.59
2023-03-31T08:50:27.068Z,99180.67
2023-03-31T08:53:03.496Z,99178.67
2023-03-31T08:55:41.830Z,99176.91
2023-03-31T08:58:27.167Z,99176.41
2023-03-31T09:01:19.267Z,99176.52
2023-03-31T09:04:12.854Z,99171.08
2023-03-31T09:06:39.953Z,99171.31
2023-03-31T09:09:14.103Z,99171.38
2023-03-31T09:11:50.824Z,99174.21
2023-03-31T09:14:19.430Z,99172.80
2023-03-31T09:17:11.215Z,99170.52
2023-03-31T09:19:48.508Z,99171.25
2023-03-31T09:22:20.814Z,99167.92
2023-03-31T09:25:06.242Z,99164.44
2023-03-31T09:27:36.763Z,99163.62
2023-03-31T09:30:28.777Z,99163.95
2023-03-31T09:33:17.097Z,99158.58
2023-03-31T09:35:45.977Z,99155.56
2023-03-31T09:38:15.397Z,99154.63
2023-03-31T09:40:42.880Z,99157.57
2023-03-31T09:43:22.916Z,99147.63
2023-03-31T09:46:07.901Z,99142.91
2023-03-31T09:48:38.625Z,99141.88
2023-03-31T09:51:07.753Z,99134.80
2023-03-31T09:53:40.888Z,99143.51
2023-03-31T09:56:10.923Z,99145.64
2023-03-31T09:58:42.853Z,99143.64
2023-03-31T10:01:12.675Z,99141.48
2023-03-31T10:03:50.507Z,99142.55
2023-03-31T10:06:18.090Z,99143.48
2023-03-31T10:08:57.133Z,99142.99
2023-03-31T10:11:26.813Z,99140.98
2023-03-31T10:14:15.259Z,99140.17
2023-03-31T10:16:53.304Z,99137.13
2023-03-31T10:19:24.354Z,99140.80
2023-03-31T10:22:04.536Z,99141.00
2023-03-31T10:24:39.789Z,99142.20
2023-03-31T10:27:22.230Z,99147.15
2023-03-31T10:29:56.107Z,99140.06
2023-03-31T10:32:34.905Z,99141.48
2023-03-31T10:35:35.934Z,99142.73
2023-03-31T10:38:25.991Z,99140.39
2023-03-31T10:40:56.135Z,99137.48
2023-03-31T10:43:48.813Z,99132.34
2023-03-31T10:46:15.717Z,99131.55
2023-03-31T10:48:44.550Z,99130.44
2023-03-31T10:51:26.277Z,99131.25
2023-03-31T10:53:55.647Z,99132.73
2023-03-31T10:56:42.973Z,99126.45
2023-03-31T10:59:37.926Z,99129.09
2023-03-31T11:02:39.328Z,99124.20
2023-03-31T11:05:36.792Z,99122.06
2023-03-31T11:08:03.633Z,99120.03
2023-03-31T11:10:53.395Z,99119.30
2023-03-31T11:13:20.303Z,99119.20
2023-03-31T11:16:10.666Z,99121.48
2023-03-31T11:19:15.975Z,99113.33
2023-03-31T11:21:46.745Z,99113.92
2023-03-31T11:24:33.162Z,99119.73
2023-03-31T11:27:18.324Z,99120.27
2023-03-31T11:30:10.460Z,99126.11
2023-03-31T11:33:19.500Z,99127.12
2023-03-31T11:35:53.765Z,99122.45
2023-03-31T11:38:41.990Z,99120.46
2023-03-31T11:41:18.881Z,99122.68
2023-03-31T11:43:49.989Z,99119.48
2023-03-31T11:46:20.073Z,99115.27
2023-03-31T11:48:54.703Z,99115.40
2023-03-31T11:51:28.238Z,99117.61
2023-03-31T11:54:00.670Z,99118.14
2023-03-31T11:56:35.359Z,99118.83
2023-03-31T11:59:03.834Z,99118.63
2023-03-31T12:01:42.036Z,99117.77
2023-03-31T12:04:30.656Z,99115.52
2023-03-31T12:07:04.206Z,99116.96
2023-03-31T12:09:51.564Z,99114.56
2023-03-31T12:12:24.107Z,99111.92
2023-03-31T12:15:03.307Z,99113.70
2023-03-31T12:18:24.911Z,99107.20
2023-03-31T12:20:55.855Z,99108.75
2023-03-31T12:23:26.808Z,99109.58
2023-03-31T12:26:11.547Z,99105.87
2023-03-31T12:28:40.695Z,99105.99
2023-03-31T12:31:15.244Z,99101.15
2023-03-31T12:34:09.285Z,99094.23
2023-03-31T12:36:57.297Z,99095.38
2023-03-31T12:39:55.334Z,99091.66
2023-03-31T12:42:34.424Z,99090.89
2023-03-31T12:45:30.927Z,99092.18
2023-03-31T12:48:16.383Z,99091.96
2023-03-31T12:51:05.389Z,99091.54
2023-03-31T12:53:58.941Z,99086.73
2023-03-31T12:56:27.615Z,99092.92
2023-03-31T12:58:54.506Z,99089.48
2023-03-31T13:01:22.996Z,99088.24
2023-03-31T13:04:11.095Z,99086.13
2023-03-31T13:06:37.914Z,99083.81
2023-03-31T13:09:08.125Z,99083.50
2023-03-31T13:11:37.636Z,99079.07
2023-03-31T13:14:27.594Z,99078.06
2023-03-31T13:17:22.364Z,99071.41
2023-03-31T13:19:50.669Z,99068.13
2023-03-31T13:22:35.034Z,99064.88
2023-03-31T13:25:30.457Z,99065.75
2023-03-31T13:28:03.990Z,99063.19
2023-03-31T13:30:40.276Z,99061.55
2023-03-31T13:33:10.359Z,99059.86
2023-03-31T13:35:42.026Z,99052.20
2023-03-31T13:38:40.959Z,99052.73
2023-03-31T13:41:16.609Z,99053.94
2023-03-31T13:44:32.343Z,99048.48
2023-03-31T13:47:36.760Z,99045.96
2023-03-31T13:50:12.917Z,99039.45
2023-03-31T13:53:10.878Z,99038.92
2023-03-31T13:56:02.491Z,99039.39
2023-03-31T13:59:05.631Z,99041.36
2023-03-31T14:01:53.744Z,99035.02
2023-03-31T14:04:39.088Z,99035.23
2023-03-31T14:07:14.284Z,99037.88
2023-03-31T14:09:49.623Z,99033.41
2023-03-31T14:12:36.780Z,99032.96
2023-03-31T14:15:06.462Z,99029.79
2023-03-31T14:17:36.622Z,99027.41
2023-03-31T14:20:24.178Z,99023.77
2023-03-31T14:23:03.655Z,99026.48
2023-03-31T14:25:33.149Z,99023.71
2023-03-31T14:28:37.683Z,99021.85
2023-03-31T14:31:38.658Z,99019.48
2023-03-31T14:34:41.241Z,99020.55
2023-03-31T14:37:15.061Z,99017.89
2023-03-31T14:39:46.282Z,99019.01
2023-03-31T14:42:15.910Z,99015.05
2023-03-31T14:44:46.242Z,99019.95
2023-03-31T14:47:16.395Z,99021.92
2023-03-31T14:49:43.264Z,99020.94
2023-03-31T14:52:24.842Z,99022.45
2023-03-31T14:54:52.588Z,99029.43
2023-03-31T14:57:22.467Z,99028.19
2023-03-31T14:59:53.319Z,99025.49
2023-03-31T15:02:33.246Z,99026.48
2023-03-31T15:05:04.722Z,99031.47
2023-03-31T15:07:31.659Z,99033.18
2023-03-31T15:09:59.128Z,99030.39
2023-03-31T15:12:28.919Z,99023.71
2023-03-31T15:15:03.520Z,99023.49
2023-03-31T15:17:36.724Z,99019.55
2023-03-31T15:20:27.491Z,99015.92
2023-03-31T15:22:59.244Z,99011.96
2023-03-31T15:25:32.304Z,98999.35
2023-03-31T15:28:14.315Z,98996.99
2023-03-31T15:30:41.844Z,98991.21
2023-03-31T15:33:19.711Z,98994.61
2023-03-31T15:35:47.516Z,98998.84
2023-03-31T15:38:17.905Z,98999.73
2023-03-31T15:40:54.100Z,99003.20
2023-03-31T15:43:26.912Z,99002.33
2023-03-31T15:46:21.660Z,99005.96
2023-03-31T15:48:55.555Z,99006.63
2023-03-31T15:51:32.899Z,99005.41
2023-03-31T15:53:59.838Z,99010.13
2023-03-31T15:56:33.754Z,99015.58
2023-03-31T15:59:20.988Z,99014.63
2023-03-31T16:01:50.648Z,99013.10
2023-03-31T16:04:18.192Z,99018.29
2023-03-31T16:06:47.644Z,99025.89
2023-03-31T16:09:23.661Z,99027.44
2023-03-31T16:11:55.004Z,99030.40
2023-03-31T16:14:45.136Z,99032.20
2023-03-31T16:17:25.672Z,99038.38
2023-03-31T16:20:06.616Z,99042.26
2023-03-31T16:22:40.136Z,99042.20
2023-03-31T16:25:19.833Z,99043.75
2023-03-31T16:27:56.582Z,99044.51
2023-03-31T16:30:36.485Z,99050.45
2023-03-31T16:33:11.694Z,99044.04
2023-03-31T16:35:41.561Z,99038.33
2023-03-31T16:38:11.109Z,99033.79
2023-03-31T16:40:43.693Z,99037.25
2023-03-31T16:43:11.868Z,99030.72
2023-03-31T16:45:40.007Z,99028.83
2023-03-31T16:48:15.620Z,99034.15
2023-03-31T16:50:47.685Z,99034.59
2023-03-31T16:53:16.674Z,99038.36
2023-03-31T16:55:43.495Z,99039.44
2023-03-31T16:58:10.666Z,99041.13
2023-03-31T17:00:40.001Z,99041.96
2023-03-31T17:03:09.530Z,99037.97
2023-03-31T17:05:41.650Z,99035.39
2023-03-31T17:08:10.208Z,99036.28
2023-03-31T17:10:41.238Z,99038.77
2023-03-31T17:13:09.419Z,99044.02
2023-03-31T17:15:37.326Z,99050.86
2023-03-31T17:18:04.514Z,99049.80
2023-03-31T17:20:32.569Z,99051.60
2023-03-31T17:23:00.056Z,99050.06
2023-03-31T17:25:27.208Z,99052.63
2023-03-31T17:27:55.434Z,99046.83
2023-03-31T17:30:22.789Z,99042.87
2023-03-31T17:32:51.539Z,99054.30
2023-03-31T17:35:21.268Z,99055.77
2023-03-31T17:37:53.188Z,99055.45
2023-03-31T17:40:21.484Z,99053.50
2023-03-31T17:42:48.997Z,99050.73
2023-03-31T17:45:15.954Z,99052.02
2023-03-31T17:47:44.607Z,99050.20
2023-03-31T17:50:12.318Z,99045.20
2023-03-31T17:52:39.999Z,99045.73
2023-03-31T17:55:07.412Z,99048.14
2023-03-31T17:57:36.463Z,99050.95
2023-03-31T18:00:05.539Z,99047.16
2023-03-31T18:02:37.329Z,99045.11
2023-03-31T18:05:06.544Z,99049.95
2023-03-31T18:07:34.427Z,99053.54
2023-03-31T18:10:04.723Z,99055.32
2023-03-31T18:12:33.852Z,99059.44
2023-03-31T18:15:02.292Z,99058.27
2023-03-31T18:17:30.723Z,99057.70
2023-03-31T18:19:58.832Z,99059.13
2023-03-31T18:22:26.017Z,99057.48
2023-03-31T18:24:53.166Z,99057.74
2023-03-31T18:27:21.287Z,99059.00
2023-03-31T18:29:49.000Z,99059.77
2023-03-31T18:32:15.974Z,99056.14
2023-03-31T18:34:42.839Z,99055.10
2023-03-31T18:37:10.056Z,99048.45
2023-03-31T18:39:37.232Z,99042.69
2023-03-31T18:42:04.822Z,99043.41
2023-03-31T18:44:32.196Z,99047.97
2023-03-31T18:46:59.074Z,99044.80
2023-03-31T18:49:26.207Z,99040.45
2023-03-31T18:51:53.530Z,99040.92
2023-03-31T18:54:20.789Z,99043.81
2023-03-31T18:56:47.724Z,99046.92
2023-03-31T18:59:14.591Z,99042.88
2023-03-31T19:01:41.844Z,99043.33
2023-03-31T19:04:09.555Z,99045.11
2023-03-31T19:06:36.977Z,99047.52
2023-03-31T19:09:04.423Z,99047.58
2023-03-31T19:11:31.826Z,99047.10
2023-03-31T19:13:58.839Z,99051.52
2023-03-31T19:16:26.700Z,99054.11
2023-03-31T19:18:54.284Z,99051.80
2023-03-31T19:21:21.774Z,99048.36
2023-03-31T19:23:48.919Z,99050.92
2023-03-31T19:26:18.902Z,99052.17
2023-03-31T19:28:47.609Z,99053.51
2023-03-31T19:31:15.112Z,99057.95
2023-03-31T19:33:42.522Z,99057.55
2023-03-31T19:36:09.431Z,99056.87
2023-03-31T19:38:36.334Z,99057.53
2023-03-31T19:41:04.977Z,99055.99
2023-03-31T19:43:33.283Z,99054.46
2023-03-31T19:46:00.854Z,99058.03
2023-03-31T19:48:30.867Z,99061.58
2023-03-31T19:50:59.374Z,99056.70
2023-03-31T19:53:26.697Z,99039.73
2023-03-31T19:55:59.631Z,99044.98
2023-03-31T19:58:28.002Z,99048.27
2023-03-31T20:00:56.498Z,99045.81
2023-03-31T20:03:25.741Z,99046.67
2023-03-31T20:06:11.901Z,99047.21
2023-03-31T20:08:41.972Z,99039.48
2023-03-31T20:11:12.946Z,99040.11
2023-03-31T20:13:42.269Z,99041.52
2023-03-31T20:16:12.240Z,99037.65
2023-03-31T20:18:39.769Z,99032.18
2023-03-31T20:21:10.776Z,99030.50
2023-03-31T20:23:39.559Z,99022.90
2023-03-31T20:26:08.513Z,99019.94
2023-03-31T20:28:37.468Z,99022.06
2023-03-31T20:31:14.209Z,99024.67
2023-03-31T20:33:41.831Z,99018.98
2023-03-31T20:36:20.478Z,99011.96
2023-03-31T20:38:53.279Z,99013.71
2023-03-31T20:41:23.440Z,99007.63
2023-03-31T20:43:50.824Z,99006.91
2023-03-31T20:46:18.590Z,99004.93
2023-03-31T20:48:48.977Z,99005.38
2023-03-31T20:51:18.715Z,99006.76
2023-03-31T20:53:48.293Z,99011.95
2023-03-31T20:56:19.288Z,99015.75
2023-03-31T20:58:47.827Z,99010.52
2023-03-31T21:01:16.453Z,99013.96
2023-03-31T21:03:44.100Z,99009.63
2023-03-31T21:06:13.700Z,99012.89
2023-03-31T21:08:45.339Z,99009.27
2023-03-31T21:11:13.513Z,99010.06
2023-03-31T21:13:40.455Z,99012.27
2023-03-31T21:16:07.493Z,99006.82
2023-03-31T21:18:36.937Z,99003.61
2023-03-31T21:21:11.851Z,99007.91
2023-03-31T21:23:38.984Z,98999.23
2023-03-31T21:26:08.308Z,99006.38
2023-03-31T21:28:37.621Z,99003.96
2023-03-31T21:31:10.745Z,99007.67
2023-03-31T21:33:40.004Z,98996.48
2023-03-31T21:36:10.132Z,98998.45
2023-03-31T21:38:37.033Z,98994.67
2023-03-31T21:41:09.586Z,98987.23
2023-03-31T21:43:37.333Z,98982.02
2023-03-31T21:46:05.915Z,98987.16
2023-03-31T21:48:33.329Z,98982.92
2023-03-31T21:51:02.335Z,98979.07
2023-03-31T21:53:30.987Z,98974.61
2023-03-31T21:55:58.112Z,98967.30
2023-03-31T21:58:28.180Z,98964.02
2023-03-31T22:00:57.459Z,98963.27
2023-03-31T22:03:28.275Z,98967.04
2023-03-31T22:05:56.492Z,98969.23
2023-03-31T22:08:24.374Z,98969.73
2023-03-31T22:10:52.534Z,98971.16
2023-03-31T22:13:21.408Z,98969.80
2023-03-31T22:15:48.530Z,98972.72
2023-03-31T22:18:16.607Z,98978.88
2023-03-31T22:20:44.963Z,98978.30
2023-03-31T22:23:11.905Z,98974.30
2023-03-31T22:25:38.748Z,98969.26
2023-03-31T22:28:07.047Z,98966.30
2023-03-31T22:30:35.123Z,98965.03
2023-03-31T22:33:02.152Z,98972.17
2023-03-31T22:35:28.968Z,98968.30
2023-03-31T22:37:55.840Z,98970.67
2023-03-31T22:40:23.462Z,98968.04
2023-03-31T22:42:50.295Z,98970.84
2023-03-31T22:45:17.195Z,98966.88
2023-03-31T22:47:44.021Z,98963.34
2023-03-31T22:50:11.497Z,98964.63
2023-03-31T22:52:38.446Z,98964.09
2023-03-31T22:55:05.733Z,98958.27
2023-03-31T22:57:33.270Z,98957.74
2023-03-31T23:00:00.256Z,98958.62
2023-03-31T23:02:27.225Z,98962.77
2023-03-31T23:04:54.086Z,98960.30
2023-03-31T23:07:21.492Z,98961.88
2023-03-31T23:09:48.526Z,98961.45
2023-03-31T23:12:15.793Z,98959.08
2023-03-31T23:14:42.583Z,98962.23
2023-03-31T23:17:09.392Z,98963.83
2023-03-31T23:19:38.272Z,98966.65
2023-03-31T23:22:05.607Z,98965.13
2023-03-31T23:24:32.538Z,98959.40
2023-03-31T23:26:59.389Z,98963.29
2023-03-31T23:29:26.911Z,98963.27
2023-03-31T23:31:53.727Z,98962.98
2023-03-31T23:34:20.787Z,98967.64
2023-03-31T23:36:47.778Z,98967.45
2023-03-31T23:39:14.617Z,98962.77
2023-03-31T23:41:41.632Z,98959.08
2023-03-31T23:44:08.511Z,98952.48
2023-03-31T23:46:37.312Z,98951.00
2023-03-31T23:49:04.582Z,98952.98
2023-03-31T23:51:31.455Z,98953.25
2023-03-31T23:53:58.240Z,98948.25
2023-03-31T23:56:26.572Z,98942.45
2023-03-31T23:58:53.753Z,98942.09
